createdAt,value
2018-09-15T00:00:18.621Z,17.10
2018-09-15T00:02:57.716Z,17.20
2018-09-15T00:05:30.986Z,17.10
2018-09-15T00:08:03.147Z,17.10
2018-09-15T00:10:33.685Z,17.10
2018-09-15T00:13:07.806Z,17.10
2018-09-15T00:15:44.657Z,17.00
2018-09-15T00:18:18.729Z,17.10
2018-09-15T00:20:50.410Z,17.10
2018-09-15T00:23:23.156Z,17.10
2018-09-15T00:26:01.361Z,17.00
2018-09-15T00:28:33.520Z,17.00
2018-09-15T00:31:10.467Z,17.00
2018-09-15T00:33:50.989Z,16.90
2018-09-15T00:36:32.341Z,16.90
2018-09-15T00:39:06.478Z,16.90
2018-09-15T00:41:41.337Z,16.90
2018-09-15T00:44:12.515Z,16.80
2018-09-15T00:46:45.485Z,16.80
2018-09-15T00:49:15.757Z,16.80
2018-09-15T00:51:48.505Z,16.70
2018-09-15T00:54:18.978Z,16.60
2018-09-15T00:56:48.444Z,16.60
2018-09-15T00:59:18.079Z,16.60
2018-09-15T01:01:48.094Z,16.50
2018-09-15T01:04:21.308Z,16.50
2018-09-15T01:06:51.542Z,16.40
2018-09-15T01:09:21.961Z,16.40
2018-09-15T01:11:52.437Z,16.40
2018-09-15T01:14:22.287Z,16.40
2018-09-15T01:16:51.962Z,16.40
2018-09-15T01:19:22.444Z,16.30
2018-09-15T01:21:54.271Z,16.30
2018-09-15T01:24:27.476Z,16.20
2018-09-15T01:27:07.147Z,16.20
2018-09-15T01:29:37.623Z,16.10
2018-09-15T01:32:06.959Z,16.10
2018-09-15T01:34:43.550Z,15.90
2018-09-15T01:37:25.036Z,15.90
2018-09-15T01:39:58.959Z,15.80
2018-09-15T01:42:28.517Z,15.80
2018-09-15T01:44:59.928Z,15.80
2018-09-15T01:47:31.812Z,15.80
2018-09-15T01:50:01.473Z,15.70
2018-09-15T01:52:32.642Z,15.70
2018-09-15T01:55:02.721Z,15.60
2018-09-15T01:57:35.427Z,15.60
2018-09-15T02:00:04.884Z,15.50
2018-09-15T02:02:35.157Z,15.50
2018-09-15T02:05:05.490Z,15.40
2018-09-15T02:07:40.904Z,15.40
2018-09-15T02:10:12.010Z,15.40
2018-09-15T02:12:42.517Z,15.40
2018-09-15T02:15:12.060Z,15.40
2018-09-15T02:17:50.184Z,15.30
2018-09-15T02:20:19.898Z,15.30
2018-09-15T02:23:04.348Z,15.30
2018-09-15T02:25:34.069Z,15.30
2018-09-15T02:28:03.937Z,15.20
2018-09-15T02:30:33.701Z,15.20
2018-09-15T02:33:15.864Z,15.10
2018-09-15T02:35:47.303Z,15.00
2018-09-15T02:38:17.058Z,15.00
2018-09-15T02:40:50.146Z,14.90
2018-09-15T02:43:30.606Z,14.90
2018-09-15T02:46:11.284Z,14.90
2018-09-15T02:48:40.886Z,14.90
2018-09-15T02:51:14.707Z,14.70
2018-09-15T02:53:44.911Z,14.70
2018-09-15T02:56:14.510Z,14.60
2018-09-15T02:58:44.323Z,14.60
2018-09-15T03:01:15.406Z,14.60
2018-09-15T03:03:45.485Z,14.50
2018-09-15T03:06:18.519Z,14.60
2018-09-15T03:08:58.398Z,14.60
2018-09-15T03:11:28.235Z,14.60
2018-09-15T03:13:57.762Z,14.50
2018-09-15T03:16:27.201Z,14.50
2018-09-15T03:18:56.903Z,14.40
2018-09-15T03:21:27.380Z,14.40
2018-09-15T03:23:57.967Z,14.40
2018-09-15T03:26:30.102Z,14.30
2018-09-15T03:29:01.161Z,14.20
2018-09-15T03:31:32.296Z,14.20
2018-09-15T03:34:02.316Z,14.10
2018-09-15T03:36:31.605Z,14.10
2018-09-15T03:39:01.814Z,14.00
2018-09-15T03:41:31.306Z,14.00
2018-09-15T03:44:01.399Z,13.90
2018-09-15T03:46:30.667Z,13.90
2018-09-15T03:48:59.892Z,13.90
2018-09-15T03:51:29.348Z,13.90
2018-09-15T03:53:59.736Z,13.90
2018-09-15T03:56:29.383Z,13.80
2018-09-15T03:58:59.234Z,13.80
2018-09-15T04:01:28.654Z,13.80
2018-09-15T04:03:58.130Z,13.80
2018-09-15T04:06:27.789Z,13.70
2018-09-15T04:08:57.377Z,13.70
2018-09-15T04:11:26.563Z,13.70
2018-09-15T04:13:57.363Z,13.70
2018-09-15T04:16:27.238Z,13.70
2018-09-15T04:18:56.497Z,13.70
2018-09-15T04:21:26.193Z,13.70
2018-09-15T04:23:55.303Z,13.80
2018-09-15T04:26:24.721Z,13.70
2018-09-15T04:28:54.409Z,13.70
2018-09-15T04:31:23.718Z,13.70
2018-09-15T04:33:55.581Z,13.70
2018-09-15T04:36:24.873Z,13.70
2018-09-15T04:38:54.658Z,13.70
2018-09-15T04:41:23.882Z,13.70
2018-09-15T04:43:53.083Z,13.70
2018-09-15T04:46:22.301Z,13.60
2018-09-15T04:48:51.809Z,13.60
2018-09-15T04:51:22.353Z,13.60
2018-09-15T04:53:51.764Z,13.60
2018-09-15T04:56:20.912Z,13.50
2018-09-15T04:58:50.712Z,13.50
2018-09-15T05:01:19.733Z,13.50
2018-09-15T05:03:48.849Z,13.50
2018-09-15T05:06:18.266Z,13.40
2018-09-15T05:08:48.269Z,13.40
2018-09-15T05:11:17.881Z,13.40
2018-09-15T05:13:47.578Z,13.40
2018-09-15T05:16:17.185Z,13.40
2018-09-15T05:18:47.094Z,13.40
2018-09-15T05:21:16.390Z,13.40
2018-09-15T05:23:45.735Z,13.40
2018-09-15T05:26:14.911Z,13.40
2018-09-15T05:28:44.654Z,13.40
2018-09-15T05:31:15.274Z,13.40
2018-09-15T05:33:53.674Z,13.40
2018-09-15T05:36:23.092Z,13.40
2018-09-15T05:38:52.442Z,13.40
2018-09-15T05:41:23.182Z,13.40
2018-09-15T05:43:57.006Z,13.40
2018-09-15T05:46:27.115Z,13.50
2018-09-15T05:48:56.248Z,13.50
2018-09-15T05:51:26.075Z,13.50
2018-09-15T05:53:56.022Z,13.40
2018-09-15T05:56:25.601Z,13.40
2018-09-15T05:58:55.336Z,13.40
2018-09-15T06:01:26.878Z,13.40
2018-09-15T06:03:56.948Z,13.40
2018-09-15T06:06:26.782Z,13.40
2018-09-15T06:08:56.235Z,13.50
2018-09-15T06:11:25.575Z,13.50
2018-09-15T06:13:56.269Z,13.50
2018-09-15T06:16:25.791Z,13.60
2018-09-15T06:18:55.126Z,13.60
2018-09-15T06:21:24.702Z,13.70
2018-09-15T06:23:54.293Z,13.70
2018-09-15T06:26:24.957Z,13.80
2018-09-15T06:28:54.722Z,13.90
2018-09-15T06:31:24.927Z,14.10
2018-09-15T06:33:54.652Z,14.20
2018-09-15T06:36:24.530Z,14.20
2018-09-15T06:38:56.129Z,14.20
2018-09-15T06:41:25.746Z,14.20
2018-09-15T06:43:55.507Z,14.20
2018-09-15T06:46:25.168Z,14.20
2018-09-15T06:48:55.923Z,14.20
2018-09-15T06:51:27.537Z,14.20
2018-09-15T06:54:00.821Z,14.30
2018-09-15T06:56:31.349Z,14.30
2018-09-15T06:59:03.786Z,14.40
2018-09-15T07:01:33.676Z,14.50
2018-09-15T07:04:03.361Z,14.50
2018-09-15T07:06:34.760Z,14.60
2018-09-15T07:09:06.438Z,14.70
2018-09-15T07:11:38.853Z,14.70
2018-09-15T07:15:12.239Z,14.90
2018-09-15T07:17:41.894Z,15.20
2018-09-15T07:20:11.454Z,15.40
2018-09-15T07:22:41.668Z,15.50
2018-09-15T07:25:14.176Z,15.40
2018-09-15T07:27:44.132Z,15.30
2018-09-15T07:30:13.564Z,15.40
2018-09-15T07:32:45.554Z,15.50
2018-09-15T07:35:16.258Z,15.60
2018-09-15T07:37:46.564Z,15.60
2018-09-15T07:40:47.976Z,15.70
2018-09-15T07:43:20.641Z,15.90
2018-09-15T07:45:52.364Z,16.20
2018-09-15T07:48:31.059Z,16.20
2018-09-15T07:51:01.487Z,16.20
2018-09-15T07:53:31.283Z,16.20
2018-09-15T07:56:02.333Z,16.30
2018-09-15T07:58:35.303Z,16.40
2018-09-15T08:01:11.145Z,16.50
2018-09-15T08:03:47.943Z,16.70
2018-09-15T08:06:19.630Z,16.90
2018-09-15T08:08:50.212Z,17.10
2018-09-15T08:11:29.341Z,17.20
2018-09-15T08:14:12.954Z,17.20
2018-09-15T08:16:54.344Z,17.30
2018-09-15T08:19:24.154Z,17.20
2018-09-15T08:21:54.644Z,17.20
2018-09-15T08:24:31.906Z,17.10
2018-09-15T08:27:02.491Z,17.20
2018-09-15T08:29:32.136Z,17.50
2018-09-15T08:32:04.299Z,17.60
2018-09-15T08:34:36.526Z,17.70
2018-09-15T08:37:07.162Z,17.90
2018-09-15T08:39:41.330Z,17.80
2018-09-15T08:42:15.365Z,17.60
2018-09-15T08:44:49.525Z,17.40
2018-09-15T08:47:20.231Z,17.50
2018-09-15T08:49:54.286Z,17.90
2018-09-15T08:52:24.293Z,19.00
2018-09-15T08:54:58.813Z,19.70
2018-09-15T08:57:28.521Z,20.40
2018-09-15T09:00:04.947Z,21.20
2018-09-15T09:02:36.708Z,21.90
2018-09-15T09:05:11.517Z,22.60
2018-09-15T09:07:42.229Z,22.70
2018-09-15T09:10:13.009Z,23.20
2018-09-15T09:12:43.169Z,23.80
2018-09-15T09:15:13.651Z,23.00
2018-09-15T09:17:52.094Z,22.10
2018-09-15T09:20:24.793Z,21.90
2018-09-15T09:22:56.421Z,21.70
2018-09-15T09:25:25.890Z,21.00
2018-09-15T09:28:08.245Z,20.30
2018-09-15T09:30:37.669Z,20.30
2018-09-15T09:33:12.011Z,20.70
2018-09-15T09:35:50.427Z,20.20
2018-09-15T09:38:23.727Z,19.70
2018-09-15T09:40:53.106Z,21.00
2018-09-15T09:43:24.065Z,22.50
2018-09-15T09:45:54.499Z,22.40
2018-09-15T09:48:26.979Z,21.00
2018-09-15T09:51:07.020Z,20.00
2018-09-15T09:53:40.326Z,19.40
2018-09-15T09:56:14.963Z,19.60
2018-09-15T09:58:48.257Z,20.30
2018-09-15T10:01:28.710Z,20.30
2018-09-15T10:04:01.898Z,20.20
2018-09-15T10:06:34.891Z,21.20
2018-09-15T10:09:12.389Z,21.10
2018-09-15T10:11:47.524Z,21.10
2018-09-15T10:14:26.352Z,20.70
2018-09-15T10:17:00.062Z,20.80
2018-09-15T10:19:31.733Z,21.60
2018-09-15T10:22:02.264Z,23.20
2018-09-15T10:24:34.006Z,22.60
2018-09-15T10:27:09.806Z,22.30
2018-09-15T10:29:44.777Z,21.60
2018-09-15T10:32:19.555Z,21.20
2018-09-15T10:37:49.233Z,20.50
2018-09-15T10:40:23.401Z,20.00
2018-09-15T10:42:59.628Z,20.00
2018-09-15T10:45:30.220Z,19.90
2018-09-15T10:48:07.612Z,20.00
2018-09-15T10:50:41.509Z,20.10
2018-09-15T10:53:14.360Z,21.80
2018-09-15T10:55:45.777Z,23.30
2018-09-15T10:58:19.939Z,24.50
2018-09-15T11:00:52.433Z,24.60
2018-09-15T11:03:24.915Z,24.50
2018-09-15T11:06:06.159Z,24.00
2018-09-15T11:08:37.607Z,22.90
2018-09-15T11:14:23.525Z,22.50
2018-09-15T11:23:15.742Z,23.20
2018-09-15T11:25:53.560Z,23.90
2018-09-15T11:28:25.214Z,24.80
2018-09-15T11:31:00.528Z,26.00
2018-09-15T11:33:34.785Z,25.90
2018-09-15T11:36:13.807Z,26.20
2018-09-15T11:39:01.072Z,25.50
2018-09-15T11:41:36.503Z,25.80
2018-09-15T11:44:08.557Z,24.10
2018-09-15T11:46:42.574Z,23.10
2018-09-15T11:49:22.193Z,23.30
2018-09-15T11:54:41.673Z,23.60
2018-09-15T11:57:15.524Z,22.90
2018-09-15T11:59:48.089Z,23.10
2018-09-15T12:02:23.033Z,24.00
2018-09-15T12:05:00.356Z,25.10
2018-09-15T12:07:31.106Z,25.90
2018-09-15T12:10:03.635Z,26.10
2018-09-15T12:12:41.985Z,26.70
2018-09-15T12:15:12.873Z,27.30
2018-09-15T12:17:48.289Z,27.90
2018-09-15T12:20:26.816Z,27.60
2018-09-15T12:22:57.535Z,27.50
2018-09-15T12:25:29.169Z,27.00
2018-09-15T12:28:00.466Z,27.50
2018-09-15T12:30:31.080Z,28.30
2018-09-15T12:33:04.121Z,27.70
2018-09-15T12:35:36.581Z,27.30
2018-09-15T12:38:10.968Z,27.20
2018-09-15T12:40:43.473Z,27.60
2018-09-15T12:43:18.507Z,28.50
2018-09-15T12:45:49.850Z,28.20
2018-09-15T12:48:24.743Z,26.80
2018-09-15T12:50:55.304Z,26.30
2018-09-15T12:53:37.346Z,25.00
2018-09-15T12:56:20.355Z,23.70
2018-09-15T13:01:38.685Z,25.10
2018-09-15T13:04:10.521Z,25.00
2018-09-15T13:06:43.100Z,24.20
2018-09-15T13:09:15.954Z,24.20
2018-09-15T13:14:33.314Z,23.00
2018-09-15T13:17:07.578Z,22.90
2018-09-15T13:19:44.719Z,24.40
2018-09-15T13:22:19.392Z,25.60
2018-09-15T13:24:50.185Z,24.30
2018-09-15T13:27:30.792Z,22.90
2018-09-15T13:30:01.813Z,22.10
2018-09-15T13:32:45.381Z,21.90
2018-09-15T13:35:16.791Z,21.90
2018-09-15T13:37:54.917Z,22.20
2018-09-15T13:40:26.780Z,23.40
2018-09-15T13:42:57.260Z,24.90
2018-09-15T13:45:41.383Z,26.30
2018-09-15T13:48:15.280Z,26.20
2018-09-15T13:50:57.440Z,25.10
2018-09-15T14:00:50.638Z,27.00
2018-09-15T14:03:37.568Z,25.60
2018-09-15T14:06:20.464Z,24.70
2018-09-15T14:08:52.062Z,24.00
2018-09-15T14:11:22.251Z,23.10
2018-09-15T14:13:53.624Z,22.80
2018-09-15T14:16:24.430Z,22.80
2018-09-15T14:18:55.377Z,22.80
2018-09-15T14:21:25.701Z,22.70
2018-09-15T14:23:59.151Z,22.60
2018-09-15T14:26:29.881Z,22.70
2018-09-15T14:29:00.360Z,22.90
2018-09-15T14:31:32.937Z,22.90
2018-09-15T14:34:06.100Z,22.50
2018-09-15T14:36:38.420Z,22.30
2018-09-15T14:39:12.408Z,21.90
2018-09-15T14:41:46.744Z,21.70
2018-09-15T14:44:21.164Z,21.70
2018-09-15T14:46:55.796Z,21.50
2018-09-15T14:49:26.520Z,21.70
2018-09-15T14:51:56.662Z,21.70
2018-09-15T14:54:37.455Z,21.80
2018-09-15T14:57:21.862Z,21.90
2018-09-15T14:59:58.259Z,21.80
2018-09-15T15:02:30.335Z,21.70
2018-09-15T15:05:00.285Z,21.30
2018-09-15T15:07:31.682Z,20.90
2018-09-15T15:10:01.464Z,20.70
2018-09-15T15:12:34.484Z,20.80
2018-09-15T15:15:05.340Z,20.80
2018-09-15T15:17:35.215Z,20.80
2018-09-15T15:20:05.073Z,20.80
2018-09-15T15:22:37.738Z,20.70
2018-09-15T15:25:09.408Z,20.70
2018-09-15T15:27:57.233Z,20.60
2018-09-15T15:30:30.149Z,20.60
2018-09-15T15:33:01.249Z,20.50
2018-09-15T15:35:41.591Z,20.30
2018-09-15T15:38:19.808Z,20.50
2018-09-15T15:40:55.551Z,20.60
2018-09-15T15:43:30.125Z,20.70
2018-09-15T15:46:04.607Z,20.90
2018-09-15T15:48:42.915Z,21.10
2018-09-15T15:51:18.335Z,21.30
2018-09-15T15:54:04.114Z,21.10
2018-09-15T15:57:30.238Z,21.10
2018-09-15T16:00:27.691Z,21.10
2018-09-15T16:05:44.272Z,21.00
2018-09-15T16:08:18.487Z,21.00
2018-09-15T16:10:59.893Z,20.80
2018-09-15T16:13:56.048Z,20.80
2018-09-15T16:20:04.164Z,20.80
2018-09-15T16:23:10.348Z,20.80
2018-09-15T16:35:23.853Z,20.70
2018-09-15T16:45:24.617Z,20.50
2018-09-15T16:47:57.597Z,20.40
2018-09-15T16:50:36.720Z,20.30
2018-09-15T16:53:21.625Z,20.30
2018-09-15T16:55:57.669Z,20.30
2018-09-15T16:58:31.110Z,20.20
2018-09-15T17:01:28.706Z,20.10
2018-09-15T17:04:16.335Z,20.10
2018-09-15T17:06:56.004Z,20.10
2018-09-15T17:09:27.646Z,20.00
2018-09-15T17:12:03.527Z,19.90
2018-09-15T17:14:40.846Z,19.90
2018-09-15T17:17:29.467Z,19.80
2018-09-15T17:20:10.455Z,19.80
2018-09-15T17:23:30.605Z,19.80
2018-09-15T17:26:10.922Z,19.90
2018-09-15T17:29:00.981Z,19.90
2018-09-15T17:31:41.594Z,19.90
2018-09-15T17:34:33.663Z,20.00
2018-09-15T17:37:08.214Z,19.90
2018-09-15T17:40:25.936Z,19.90
2018-09-15T17:43:05.853Z,19.90
2018-09-15T17:49:09.198Z,19.90
2018-09-15T17:51:51.422Z,20.00
2018-09-15T17:54:34.853Z,20.00
2018-09-15T17:57:26.928Z,20.00
2018-09-15T18:03:01.942Z,20.00
2018-09-15T18:11:15.292Z,19.80
2018-09-15T18:19:53.621Z,19.80
2018-09-15T18:23:04.160Z,19.70
2018-09-15T18:25:34.708Z,19.70
2018-09-15T18:28:29.728Z,19.80
2018-09-15T18:31:27.615Z,19.70
2018-09-15T18:35:04.604Z,19.60
2018-09-15T18:43:44.805Z,19.60
2018-09-15T18:53:12.374Z,19.60
2018-09-15T18:56:06.399Z,19.50
2018-09-15T18:58:40.827Z,19.40
2018-09-15T19:01:34.090Z,19.40
2018-09-15T19:04:20.560Z,19.30
2018-09-15T19:07:11.416Z,19.20
2018-09-15T19:09:55.283Z,19.20
2018-09-15T19:12:47.658Z,19.20
2018-09-15T19:15:27.433Z,19.20
2018-09-15T19:18:12.378Z,19.20
2018-09-15T19:20:50.492Z,19.20
2018-09-15T19:23:26.555Z,19.20
2018-09-15T19:25:58.635Z,19.30
2018-09-15T19:28:30.190Z,19.50
2018-09-15T19:31:04.620Z,19.50
2018-09-15T19:33:57.903Z,19.40
2018-09-15T19:36:28.480Z,19.30
2018-09-15T19:39:05.599Z,19.40
2018-09-15T19:41:38.657Z,19.30
2018-09-15T19:44:36.356Z,19.30
2018-09-15T19:47:15.998Z,19.30
2018-09-15T19:49:57.148Z,19.20
2018-09-15T19:52:46.831Z,19.20
2018-09-15T20:01:56.217Z,19.10
2018-09-15T20:04:59.556Z,18.90
2018-09-15T20:08:34.276Z,18.80
2018-09-15T20:11:30.451Z,18.80
2018-09-15T20:14:19.858Z,18.90
2018-09-15T20:16:54.870Z,18.90
2018-09-15T20:19:29.253Z,19.10
2018-09-15T20:21:59.704Z,19.20
2018-09-15T20:24:41.032Z,19.10
2018-09-15T20:27:21.890Z,19.20
2018-09-15T20:30:02.868Z,19.20
2018-09-15T20:32:38.941Z,19.00
2018-09-15T20:35:13.931Z,18.90
2018-09-15T20:37:46.329Z,18.80
2018-09-15T20:40:19.976Z,18.80
2018-09-15T20:43:00.378Z,18.70
2018-09-15T20:45:35.513Z,18.90
2018-09-15T20:48:24.173Z,18.70
2018-09-15T20:55:14.685Z,18.60
2018-09-15T20:58:10.906Z,18.50
2018-09-15T21:00:42.448Z,18.30
2018-09-15T21:03:30.932Z,18.20
2018-09-15T21:06:09.264Z,18.20
2018-09-15T21:08:42.437Z,18.30
2018-09-15T21:14:05.923Z,18.30
2018-09-15T21:16:38.607Z,18.20
2018-09-15T21:22:09.246Z,18.20
2018-09-15T21:24:41.788Z,18.30
2018-09-15T21:27:27.814Z,18.30
2018-09-15T21:30:07.668Z,18.20
2018-09-15T21:32:40.117Z,18.10
2018-09-15T21:35:14.757Z,18.10
2018-09-15T21:43:50.236Z,18.00
2018-09-15T21:46:29.247Z,17.70
2018-09-15T21:55:35.611Z,17.60
2018-09-15T21:58:05.925Z,17.70
2018-09-15T22:00:43.970Z,17.70
2018-09-15T22:03:16.996Z,17.50
2018-09-15T22:05:50.325Z,17.30
2018-09-15T22:08:20.838Z,17.20
2018-09-15T22:10:53.335Z,17.10
2018-09-15T22:13:26.302Z,17.00
2018-09-15T22:16:01.135Z,16.90
2018-09-15T22:18:32.417Z,16.80
2018-09-15T22:21:03.946Z,16.80
2018-09-15T22:23:35.678Z,16.70
2018-09-15T22:26:21.355Z,16.70
2018-09-15T22:29:12.151Z,16.70
2018-09-15T22:31:45.894Z,16.80
2018-09-15T22:34:16.064Z,16.50
2018-09-15T22:36:49.728Z,16.40
2018-09-15T22:39:38.080Z,16.30
2018-09-15T22:42:33.185Z,16.10
2018-09-15T22:45:05.572Z,16.00
2018-09-15T22:47:56.352Z,15.90
2018-09-15T22:50:31.649Z,15.90
2018-09-15T22:53:02.331Z,15.90
2018-09-15T22:55:37.409Z,15.90
2018-09-15T22:58:07.483Z,15.90
2018-09-15T23:00:40.052Z,15.90
2018-09-15T23:03:19.554Z,15.70
2018-09-15T23:06:08.966Z,15.60
2018-09-15T23:08:47.138Z,15.50
2018-09-15T23:11:30.365Z,15.50
2018-09-15T23:14:03.398Z,15.50
2018-09-15T23:16:36.637Z,15.50
2018-09-15T23:19:25.670Z,15.50
2018-09-15T23:22:11.219Z,15.50
2018-09-15T23:24:42.379Z,15.40
2018-09-15T23:27:15.775Z,15.40
2018-09-15T23:29:46.202Z,15.50
2018-09-15T23:32:16.822Z,15.40
2018-09-15T23:35:01.172Z,15.30
2018-09-15T23:40:45.574Z,15.10
2018-09-15T23:43:43.734Z,15.20
2018-09-15T23:46:55.709Z,15.10
2018-09-15T23:49:26.206Z,15.10
2018-09-15T23:51:57.689Z,15.20
2018-09-15T23:54:28.774Z,15.10
2018-09-15T23:56:58.654Z,15.00
2018-09-15T23:59:32.173Z,15.00
